Selsey, United Kingdom
Current Conditions -  °F | °C
As of 7:50 PM on Wednesday 17 Dec 2014 (Local Time) from EGKA Reporting Station
Broken Clouds Broken Clouds  
Wind Chill: 52°   Ceiling: 1200
Heat Index: 52°   Visibility: 4mi
Dew Point: 52°   Wind: 13mph
Humidity: 100%   Direction: 240°WSW
Pressure: 29.8"   Gusts: NA
Location:  50.74°N, 0.79°W
Report Text: EGKA 171950Z 24011KT 7000 FEW007 BKN012 11/11 Q1009
Loading
Personal Weather Stations






























Interactive Weather Map New forecast layout! Learn more

10-Day Weather Forecast

Advertisements
Track Severe Weather on mobile